createdAt,value
2023-04-12T00:00:17.644Z,1.00
2023-04-12T00:02:45.530Z,1.00
2023-04-12T00:05:13.859Z,1.00
2023-04-12T00:07:46.308Z,1.00
2023-04-12T00:10:14.418Z,1.00
2023-04-12T00:12:42.357Z,1.00
2023-04-12T00:15:11.764Z,1.00
2023-04-12T00:17:39.580Z,1.00
2023-04-12T00:20:11.837Z,1.00
2023-04-12T00:22:40.698Z,1.00
2023-04-12T00:25:09.783Z,1.00
2023-04-12T00:27:37.567Z,1.00
2023-04-12T00:30:08.247Z,1.00
2023-04-12T00:32:36.029Z,22.80
2023-04-12T00:35:04.518Z,1.00
2023-04-12T00:37:32.631Z,38.70
2023-04-12T00:40:00.541Z,45.40
2023-04-12T00:42:28.288Z,27.10
2023-04-12T00:44:56.346Z,21.30
2023-04-12T00:47:24.176Z,39.40
2023-04-12T00:49:51.945Z,40.10
2023-04-12T00:52:21.498Z,1.00
2023-04-12T00:54:49.366Z,1.00
2023-04-12T00:57:17.108Z,1.00
2023-04-12T00:59:46.320Z,1.00
2023-04-12T01:02:16.800Z,1.00
2023-04-12T01:04:45.121Z,1.00
2023-04-12T01:07:24.883Z,8.50
2023-04-12T01:10:02.892Z,28.40
2023-04-12T01:12:41.518Z,1.00
2023-04-12T01:15:12.553Z,1.00
2023-04-12T01:17:49.451Z,1.00
2023-04-12T01:20:23.194Z,1.00
2023-04-12T01:23:14.981Z,1.00
2023-04-12T01:28:46.546Z,1.00
2023-04-12T01:31:15.369Z,1.00
2023-04-12T01:33:44.916Z,1.00
2023-04-12T01:36:16.798Z,1.00
2023-04-12T01:38:45.322Z,1.00
2023-04-12T01:41:13.406Z,1.00
2023-04-12T01:43:45.799Z,1.00
2023-04-12T01:46:16.224Z,1.00
2023-04-12T01:48:48.894Z,1.00
2023-04-12T01:51:27.556Z,1.00
2023-04-12T01:54:10.397Z,1.00
2023-04-12T01:56:41.408Z,1.00
2023-04-12T01:59:10.595Z,1.00
2023-04-12T02:01:38.585Z,1.00
2023-04-12T02:04:07.999Z,1.00
2023-04-12T02:06:37.825Z,16.50
2023-04-12T02:09:05.831Z,67.00
2023-04-12T02:11:34.369Z,42.40
2023-04-12T02:14:02.106Z,71.60
2023-04-12T02:19:18.845Z,85.70
2023-04-12T02:21:46.646Z,99.90
2023-04-12T02:24:14.828Z,99.90
2023-04-12T02:26:42.557Z,99.90
2023-04-12T02:29:10.982Z,99.90
2023-04-12T02:31:39.411Z,99.90
2023-04-12T02:34:07.373Z,99.90
2023-04-12T02:36:37.090Z,99.90
2023-04-12T02:39:05.321Z,99.90
2023-04-12T02:41:33.162Z,99.90
2023-04-12T02:44:00.954Z,99.90
2023-04-12T02:46:28.982Z,99.90
2023-04-12T02:48:56.800Z,99.90
2023-04-12T02:51:25.479Z,99.90
2023-04-12T02:53:53.337Z,99.90
2023-04-12T02:56:21.077Z,1.00
2023-04-12T02:58:48.759Z,99.90
2023-04-12T03:01:16.531Z,99.90
2023-04-12T03:03:44.658Z,1.00
2023-04-12T03:06:12.795Z,1.00
2023-04-12T03:08:40.667Z,1.00
2023-04-12T03:11:08.565Z,1.00
2023-04-12T03:13:36.422Z,1.00
2023-04-12T03:16:22.171Z,1.00
2023-04-12T03:18:50.462Z,1.00
2023-04-12T03:21:18.633Z,1.00
2023-04-12T03:23:46.368Z,1.00
2023-04-12T03:26:14.297Z,1.00
2023-04-12T03:28:42.522Z,1.00
2023-04-12T03:31:12.094Z,1.00
2023-04-12T03:33:40.351Z,1.00
2023-04-12T03:36:11.111Z,1.00
2023-04-12T03:38:39.024Z,1.00
2023-04-12T03:41:07.699Z,1.00
2023-04-12T03:43:36.717Z,1.00
2023-04-12T03:46:06.001Z,1.00
2023-04-12T03:48:33.900Z,1.00
2023-04-12T03:51:06.941Z,1.00
2023-04-12T03:53:34.713Z,1.00
2023-04-12T03:56:02.561Z,1.00
2023-04-12T03:58:30.495Z,1.00
2023-04-12T04:01:00.753Z,1.00
2023-04-12T04:03:29.037Z,1.00
2023-04-12T04:05:56.915Z,1.00
2023-04-12T04:08:24.719Z,1.00
2023-04-12T04:10:52.533Z,1.00
2023-04-12T04:13:20.453Z,1.00
2023-04-12T04:15:51.253Z,1.00
2023-04-12T04:18:18.964Z,1.00
2023-04-12T04:20:46.670Z,1.00
2023-04-12T04:23:14.855Z,1.00
2023-04-12T04:25:42.612Z,1.00
2023-04-12T04:28:10.321Z,1.00
2023-04-12T04:30:38.437Z,1.00
2023-04-12T04:33:06.650Z,1.00
2023-04-12T04:35:34.515Z,1.00
2023-04-12T04:38:02.329Z,1.00
2023-04-12T04:40:32.584Z,1.00
2023-04-12T04:43:00.737Z,1.00
2023-04-12T04:45:29.777Z,1.00
2023-04-12T04:47:57.856Z,1.00
2023-04-12T04:50:27.441Z,1.00
2023-04-12T04:55:43.012Z,1.00
2023-04-12T04:58:11.251Z,1.00
2023-04-12T05:00:39.045Z,1.00
2023-04-12T05:03:06.857Z,1.00
2023-04-12T05:05:35.184Z,1.00
2023-04-12T05:08:03.020Z,51.70
2023-04-12T05:10:30.799Z,90.30
2023-04-12T05:12:58.792Z,99.90
2023-04-12T05:15:26.518Z,99.90
2023-04-12T05:17:54.266Z,99.90
2023-04-12T05:20:22.381Z,99.90
2023-04-12T05:22:50.522Z,99.90
2023-04-12T05:25:20.062Z,99.90
2023-04-12T05:27:50.337Z,99.90
2023-04-12T05:30:20.005Z,99.90
2023-04-12T05:32:47.961Z,99.90
2023-04-12T05:38:02.024Z,99.90
2023-04-12T05:40:31.335Z,99.90
2023-04-12T05:42:59.586Z,99.90
2023-04-12T05:45:27.567Z,99.90
2023-04-12T05:47:55.673Z,99.90
2023-04-12T05:50:23.606Z,99.90
2023-04-12T05:52:52.740Z,99.90
2023-04-12T05:55:20.863Z,99.90
2023-04-12T05:57:48.727Z,99.90
2023-04-12T06:00:17.917Z,99.90
2023-04-12T06:02:46.976Z,99.90
2023-04-12T06:05:17.040Z,99.90
2023-04-12T06:07:47.351Z,99.90
2023-04-12T06:10:16.844Z,99.90
2023-04-12T06:12:44.676Z,99.90
2023-04-12T06:15:12.648Z,99.90
2023-04-12T06:17:40.637Z,99.90
2023-04-12T06:20:10.974Z,99.90
2023-04-12T06:22:39.187Z,99.90
2023-04-12T06:25:08.967Z,99.90
2023-04-12T06:27:36.876Z,99.90
2023-04-12T06:30:06.975Z,99.90
2023-04-12T06:32:35.087Z,99.90
2023-04-12T06:35:03.745Z,99.90
2023-04-12T06:37:31.597Z,99.90
2023-04-12T06:39:59.366Z,99.90
2023-04-12T06:42:27.129Z,99.90
2023-04-12T06:44:54.907Z,99.90
2023-04-12T06:47:24.596Z,99.90
2023-04-12T06:49:55.589Z,99.90
2023-04-12T06:57:41.890Z,99.90
2023-04-12T07:00:12.312Z,99.90
2023-04-12T07:02:40.515Z,99.90
2023-04-12T07:05:09.574Z,99.90
2023-04-12T07:07:37.334Z,99.90
2023-04-12T07:10:08.264Z,99.90
2023-04-12T07:12:36.962Z,99.90
2023-04-12T07:15:06.593Z,99.90
2023-04-12T07:17:34.766Z,99.90
2023-04-12T07:20:03.003Z,99.90
2023-04-12T07:22:31.169Z,99.90
2023-04-12T07:24:59.555Z,99.90
2023-04-12T07:27:27.531Z,99.90
2023-04-12T07:29:57.311Z,99.90
2023-04-12T07:32:25.463Z,99.90
2023-04-12T07:34:53.539Z,99.90
2023-04-12T07:37:21.303Z,99.90
2023-04-12T07:39:49.530Z,99.90
2023-04-12T07:42:19.644Z,99.90
2023-04-12T07:44:47.581Z,99.90
2023-04-12T07:50:06.336Z,99.90
2023-04-12T07:52:34.071Z,99.90
2023-04-12T07:55:01.927Z,99.90
2023-04-12T07:57:31.377Z,99.90
2023-04-12T08:00:00.547Z,99.90
2023-04-12T08:02:28.649Z,99.90
2023-04-12T08:05:14.564Z,99.90
2023-04-12T08:07:42.403Z,99.90
2023-04-12T08:10:10.976Z,99.90
2023-04-12T08:12:40.583Z,99.90
2023-04-12T08:15:10.392Z,99.90
2023-04-12T08:17:38.237Z,99.90
2023-04-12T08:20:08.802Z,99.90
2023-04-12T08:22:36.671Z,99.90
2023-04-12T08:27:53.500Z,99.90
2023-04-12T08:30:25.954Z,99.90
2023-04-12T08:32:53.947Z,99.90
2023-04-12T08:35:22.220Z,99.90
2023-04-12T08:37:50.703Z,99.90
2023-04-12T08:40:21.025Z,99.90
2023-04-12T08:42:49.344Z,99.90
2023-04-12T08:45:17.244Z,99.90
2023-04-12T08:47:45.837Z,99.90
2023-04-12T08:50:14.135Z,99.90
2023-04-12T08:52:42.767Z,99.90
2023-04-12T08:55:12.320Z,99.90
2023-04-12T08:57:42.432Z,99.90
2023-04-12T09:00:14.161Z,99.90
2023-04-12T09:02:46.208Z,99.90
2023-04-12T09:05:14.764Z,99.90
2023-04-12T09:07:43.049Z,99.90
2023-04-12T09:10:29.236Z,99.90
2023-04-12T09:12:57.211Z,99.90
2023-04-12T09:15:25.173Z,99.90
2023-04-12T09:18:05.552Z,99.90
2023-04-12T09:20:34.480Z,99.90
2023-04-12T09:23:16.061Z,99.90
2023-04-12T09:25:47.876Z,99.90
2023-04-12T09:28:20.654Z,99.90
2023-04-12T09:30:51.009Z,99.90
2023-04-12T09:33:20.839Z,99.90
2023-04-12T09:35:49.561Z,99.90
2023-04-12T09:38:17.782Z,99.90
2023-04-12T09:40:45.871Z,99.90
2023-04-12T09:43:13.968Z,99.90
2023-04-12T09:45:41.820Z,99.90
2023-04-12T09:48:20.654Z,99.90
2023-04-12T09:50:58.189Z,99.90
2023-04-12T09:53:26.468Z,99.90
2023-04-12T09:55:55.303Z,99.90
2023-04-12T09:58:24.232Z,99.90
2023-04-12T10:00:53.649Z,99.90
2023-04-12T10:03:21.847Z,99.90
2023-04-12T10:05:50.118Z,99.90
2023-04-12T10:08:18.733Z,99.90
2023-04-12T10:10:47.061Z,99.90
2023-04-12T10:13:17.526Z,99.90
2023-04-12T10:15:48.667Z,99.90
2023-04-12T10:18:19.038Z,99.90
2023-04-12T10:20:47.611Z,99.90
2023-04-12T10:23:24.942Z,99.90
2023-04-12T10:25:56.413Z,99.90
2023-04-12T10:28:24.607Z,99.90
2023-04-12T10:30:56.350Z,99.90
2023-04-12T10:33:27.587Z,99.90
2023-04-12T10:35:59.365Z,99.90
2023-04-12T10:38:35.265Z,99.90
2023-04-12T10:44:25.710Z,99.90
2023-04-12T10:46:53.609Z,99.90
2023-04-12T10:49:21.636Z,99.90
2023-04-12T10:52:14.411Z,99.90
2023-04-12T10:54:42.542Z,99.90
2023-04-12T10:57:43.290Z,99.90
2023-04-12T11:00:13.683Z,99.90
2023-04-12T11:03:11.552Z,99.90
2023-04-12T11:06:04.578Z,99.90
2023-04-12T11:08:41.549Z,99.90
2023-04-12T11:11:21.710Z,99.90
2023-04-12T11:13:54.503Z,99.90
2023-04-12T11:19:11.111Z,99.90
2023-04-12T11:21:39.769Z,99.90
2023-04-12T11:24:07.985Z,99.90
2023-04-12T11:26:37.131Z,99.90
2023-04-12T11:29:11.887Z,99.90
2023-04-12T11:31:39.881Z,99.90
2023-04-12T11:34:07.845Z,99.90
2023-04-12T11:36:36.152Z,99.90
2023-04-12T11:39:04.853Z,99.90
2023-04-12T11:41:32.894Z,99.90
2023-04-12T11:44:01.021Z,99.90
2023-04-12T11:49:18.331Z,99.90
2023-04-12T11:51:49.444Z,99.90
2023-04-12T11:54:17.667Z,99.90
2023-04-12T11:56:45.668Z,99.90
2023-04-12T11:59:13.674Z,99.90
2023-04-12T12:01:42.550Z,99.90
2023-04-12T12:04:11.087Z,99.90
2023-04-12T12:06:40.059Z,99.90
2023-04-12T12:09:08.502Z,99.90
2023-04-12T12:11:36.630Z,99.90
2023-04-12T12:14:06.523Z,99.90
2023-04-12T12:16:35.222Z,99.90
2023-04-12T12:19:05.186Z,99.90
2023-04-12T12:21:33.662Z,99.90
2023-04-12T12:24:01.810Z,99.90
2023-04-12T12:26:30.029Z,99.90
2023-04-12T12:28:59.955Z,99.90
2023-04-12T12:31:29.142Z,99.90
2023-04-12T12:33:58.577Z,99.90
2023-04-12T12:36:35.250Z,99.90
2023-04-12T12:39:09.570Z,99.90
2023-04-12T12:41:38.354Z,99.90
2023-04-12T12:46:58.617Z,99.90
2023-04-12T12:49:34.840Z,99.90
2023-04-12T12:52:02.775Z,99.90
2023-04-12T12:54:40.566Z,99.90
2023-04-12T12:57:10.100Z,99.90
2023-04-12T12:59:38.212Z,99.90
2023-04-12T13:02:06.892Z,99.90
2023-04-12T13:04:35.110Z,99.90
2023-04-12T13:09:51.066Z,99.90
2023-04-12T13:12:21.387Z,99.90
2023-04-12T13:14:49.339Z,99.90
2023-04-12T13:17:17.179Z,99.90
2023-04-12T13:19:46.433Z,99.90
2023-04-12T13:22:14.360Z,99.90
2023-04-12T13:24:42.729Z,99.90
2023-04-12T13:27:13.875Z,99.90
2023-04-12T13:29:43.494Z,99.90
2023-04-12T13:32:12.825Z,99.90
2023-04-12T13:34:41.048Z,99.90
2023-04-12T13:37:08.958Z,79.10
2023-04-12T13:39:39.327Z,75.40
2023-04-12T13:42:08.046Z,99.90
2023-04-12T13:44:36.096Z,1.00
2023-04-12T13:47:04.580Z,1.00
2023-04-12T13:49:32.516Z,1.00
2023-04-12T13:52:01.645Z,1.00
2023-04-12T13:54:30.320Z,1.00
2023-04-12T13:56:58.662Z,1.00
2023-04-12T13:59:26.864Z,1.00
2023-04-12T14:01:55.369Z,1.00
2023-04-12T14:04:23.724Z,1.00
2023-04-12T14:06:51.648Z,1.00
2023-04-12T14:12:11.582Z,1.00
2023-04-12T14:14:39.940Z,1.00
2023-04-12T14:17:07.829Z,1.00
2023-04-12T14:19:35.857Z,1.00
2023-04-12T14:22:03.712Z,1.00
2023-04-12T14:24:31.784Z,99.90
2023-04-12T14:27:00.385Z,1.00
2023-04-12T14:29:28.385Z,1.00
2023-04-12T14:31:56.169Z,1.00
2023-04-12T14:34:24.198Z,1.00
2023-04-12T14:36:52.420Z,1.00
2023-04-12T14:39:20.560Z,1.00
2023-04-12T14:41:48.715Z,1.00
2023-04-12T14:44:17.574Z,1.00
2023-04-12T14:46:47.851Z,1.00
2023-04-12T14:49:16.096Z,1.00
2023-04-12T14:51:44.307Z,1.00
2023-04-12T14:56:47.738Z,13.60
2023-04-12T14:59:19.584Z,67.50
2023-04-12T15:01:48.139Z,99.90
2023-04-12T15:04:16.771Z,99.90
2023-04-12T15:06:45.306Z,99.90
2023-04-12T15:09:15.024Z,99.90
2023-04-12T15:11:45.919Z,99.90
2023-04-12T15:14:17.316Z,99.90
2023-04-12T15:16:46.203Z,99.90
2023-04-12T15:19:20.381Z,99.90
2023-04-12T15:24:37.759Z,99.90
2023-04-12T15:27:06.855Z,99.90
2023-04-12T15:29:35.364Z,99.90
2023-04-12T15:32:03.445Z,99.90
2023-04-12T15:34:33.114Z,99.90
2023-04-12T15:37:01.787Z,99.90
2023-04-12T15:39:29.844Z,99.90
2023-04-12T15:41:59.826Z,99.90
2023-04-12T15:44:31.112Z,99.90
2023-04-12T15:47:10.243Z,99.90
2023-04-12T15:49:39.483Z,99.90
2023-04-12T15:52:07.739Z,99.90
2023-04-12T15:57:23.130Z,99.90
2023-04-12T15:59:52.387Z,99.90
2023-04-12T16:05:09.343Z,99.90
2023-04-12T16:07:40.300Z,99.90
2023-04-12T16:10:10.386Z,99.90
2023-04-12T16:12:38.661Z,99.90
2023-04-12T16:15:08.832Z,99.90
2023-04-12T16:17:37.230Z,99.90
2023-04-12T16:22:55.639Z,99.90
2023-04-12T16:25:24.983Z,99.90
2023-04-12T16:27:53.179Z,99.90
2023-04-12T16:33:09.180Z,99.90
2023-04-12T16:35:37.582Z,99.90
2023-04-12T16:38:06.012Z,99.90
2023-04-12T16:40:34.260Z,99.90
2023-04-12T16:43:02.130Z,99.90
2023-04-12T16:45:30.162Z,99.90
2023-04-12T16:47:58.165Z,99.90
2023-04-12T16:50:26.382Z,99.90
2023-04-12T16:52:54.427Z,99.90
2023-04-12T16:55:22.751Z,50.00
2023-04-12T16:57:52.706Z,52.90
2023-04-12T17:00:21.646Z,29.50
2023-04-12T17:02:51.563Z,26.20
2023-04-12T17:05:23.349Z,99.90
2023-04-12T17:10:37.825Z,46.30
2023-04-12T17:13:05.683Z,94.90
2023-04-12T17:15:33.709Z,26.50
2023-04-12T17:18:03.471Z,37.10
2023-04-12T17:20:31.906Z,1.00
2023-04-12T17:23:00.932Z,1.00
2023-04-12T17:25:30.496Z,1.00
2023-04-12T17:27:59.422Z,1.00
2023-04-12T17:30:27.635Z,1.00
2023-04-12T17:32:57.078Z,1.00
2023-04-12T17:35:25.044Z,1.00
2023-04-12T17:37:53.023Z,1.00
2023-04-12T17:40:21.353Z,1.00
2023-04-12T17:42:49.302Z,1.00
2023-04-12T17:45:18.606Z,1.00
2023-04-12T17:47:46.523Z,1.00
2023-04-12T17:50:15.225Z,1.00
2023-04-12T17:52:43.196Z,1.00
2023-04-12T17:55:12.310Z,1.00
2023-04-12T17:57:40.155Z,1.00
2023-04-12T18:02:57.934Z,1.00
2023-04-12T18:05:26.161Z,1.00
2023-04-12T18:07:56.250Z,1.00
2023-04-12T18:10:25.907Z,17.80
2023-04-12T18:12:54.003Z,1.00
2023-04-12T18:15:22.277Z,15.60
2023-04-12T18:17:50.320Z,9.90
2023-04-12T18:20:18.657Z,29.40
2023-04-12T18:22:46.706Z,23.10
2023-04-12T18:25:15.925Z,21.20
2023-04-12T18:27:47.092Z,99.90
2023-04-12T18:30:16.759Z,99.90
2023-04-12T18:32:44.807Z,99.90
2023-04-12T18:37:59.242Z,1.00
2023-04-12T18:40:27.821Z,1.00
2023-04-12T18:42:55.722Z,1.00
2023-04-12T18:45:24.488Z,1.00
2023-04-12T18:47:52.939Z,1.00
2023-04-12T18:50:21.341Z,1.00
2023-04-12T18:52:49.551Z,1.00
2023-04-12T18:55:18.613Z,1.00
2023-04-12T18:57:48.887Z,1.00
2023-04-12T19:00:19.103Z,1.00
2023-04-12T19:05:35.375Z,1.00
2023-04-12T19:08:03.631Z,1.00
2023-04-12T19:10:32.403Z,1.00
2023-04-12T19:13:00.456Z,1.00
2023-04-12T19:18:17.002Z,1.00
2023-04-12T19:20:45.483Z,1.00
2023-04-12T19:23:14.170Z,1.00
2023-04-12T19:28:29.085Z,1.00
2023-04-12T19:30:59.518Z,1.00
2023-04-12T19:33:28.236Z,1.00
2023-04-12T19:38:24.605Z,1.00
2023-04-12T19:40:53.934Z,1.00
2023-04-12T19:43:22.644Z,1.00
2023-04-12T19:45:51.654Z,1.00
2023-04-12T19:48:20.167Z,1.00
2023-04-12T19:50:48.551Z,1.00
2023-04-12T19:53:17.593Z,1.00
2023-04-12T19:55:45.833Z,1.00
2023-04-12T19:58:14.017Z,1.00
2023-04-12T20:00:42.927Z,1.00
2023-04-12T20:03:11.020Z,1.00
2023-04-12T20:05:42.236Z,1.00
2023-04-12T20:08:10.481Z,1.00
2023-04-12T20:10:38.745Z,1.00
2023-04-12T20:13:09.928Z,1.00
2023-04-12T20:15:38.416Z,1.00
2023-04-12T20:18:07.572Z,1.00
2023-04-12T20:20:35.823Z,1.00
2023-04-12T20:23:03.989Z,1.00
2023-04-12T20:25:37.031Z,1.00
2023-04-12T20:28:05.310Z,1.00
2023-04-12T20:30:34.005Z,1.00
2023-04-12T20:33:02.053Z,1.00
2023-04-12T20:35:30.226Z,1.00
2023-04-12T20:37:59.558Z,1.00
2023-04-12T20:40:39.105Z,27.80
2023-04-12T20:43:07.946Z,41.00
2023-04-12T20:45:37.387Z,3.70
2023-04-12T20:48:08.176Z,1.00
2023-04-12T20:50:40.397Z,1.60
2023-04-12T20:53:14.619Z,3.40
2023-04-12T20:55:43.611Z,17.30
2023-04-12T20:58:15.675Z,42.80
2023-04-12T21:00:47.451Z,36.90
2023-04-12T21:03:16.936Z,31.10
2023-04-12T21:05:45.616Z,25.90
2023-04-12T21:11:03.562Z,40.90
2023-04-12T21:13:34.158Z,56.40
2023-04-12T21:16:06.930Z,66.20
2023-04-12T21:18:38.546Z,75.90
2023-04-12T21:21:07.385Z,89.10
2023-04-12T21:26:22.929Z,99.10
2023-04-12T21:28:53.867Z,99.90
2023-04-12T21:31:24.868Z,99.90
2023-04-12T21:33:53.186Z,99.90
2023-04-12T21:38:48.956Z,99.90
2023-04-12T21:41:16.934Z,99.90
2023-04-12T21:46:33.351Z,99.90
2023-04-12T21:49:01.441Z,99.90
2023-04-12T21:51:30.515Z,99.90
2023-04-12T21:56:49.158Z,99.90
2023-04-12T22:02:06.444Z,99.90
2023-04-12T22:04:34.500Z,99.90
2023-04-12T22:09:47.669Z,99.90
2023-04-12T22:12:17.406Z,99.90
2023-04-12T22:14:46.449Z,95.40
2023-04-12T22:17:15.638Z,89.10
2023-04-12T22:22:32.726Z,54.00
2023-04-12T22:25:00.977Z,27.80
2023-04-12T22:29:58.862Z,28.40
2023-04-12T22:32:28.566Z,31.00
2023-04-12T22:35:07.631Z,5.40
2023-04-12T22:37:38.282Z,6.00
2023-04-12T22:40:11.119Z,8.60
2023-04-12T22:42:45.333Z,5.40
2023-04-12T22:45:14.926Z,9.80
2023-04-12T22:47:45.554Z,17.90
2023-04-12T22:50:14.310Z,1.20
2023-04-12T22:52:42.373Z,24.60
2023-04-12T22:55:13.195Z,2.90
2023-04-12T22:57:44.412Z,1.00
2023-04-12T23:00:16.962Z,1.00
2023-04-12T23:02:46.976Z,1.00
2023-04-12T23:05:15.576Z,1.00
2023-04-12T23:07:46.043Z,8.90
2023-04-12T23:10:14.247Z,1.00
2023-04-12T23:12:42.041Z,1.00
2023-04-12T23:15:11.968Z,1.00
2023-04-12T23:17:40.034Z,1.00
2023-04-12T23:20:13.698Z,1.00
2023-04-12T23:22:58.168Z,1.00
2023-04-12T23:25:38.472Z,1.00
2023-04-12T23:28:11.681Z,1.00
2023-04-12T23:30:39.856Z,1.00
2023-04-12T23:33:08.591Z,1.00
2023-04-12T23:35:38.188Z,1.00
2023-04-12T23:38:06.734Z,1.00
2023-04-12T23:40:34.802Z,1.00
2023-04-12T23:43:02.761Z,1.00
2023-04-12T23:45:32.663Z,1.00
2023-04-12T23:48:04.107Z,1.00
2023-04-12T23:50:31.880Z,1.00
2023-04-12T23:53:02.663Z,1.00
2023-04-12T23:55:31.109Z,1.00
2023-04-12T23:57:58.879Z,1.00
